createdAt,value
2017-10-15T00:00:48.076Z,15.00
2017-10-15T00:03:15.602Z,15.00
2017-10-15T00:05:43.155Z,15.00
2017-10-15T00:08:11.446Z,15.00
2017-10-15T00:10:39.496Z,14.90
2017-10-15T00:13:07.782Z,14.90
2017-10-15T00:15:36.065Z,14.90
2017-10-15T00:18:03.628Z,14.90
2017-10-15T00:20:31.138Z,14.90
2017-10-15T00:22:58.690Z,14.90
2017-10-15T00:25:26.493Z,14.80
2017-10-15T00:27:54.786Z,14.80
2017-10-15T00:30:23.093Z,14.80
2017-10-15T00:32:50.603Z,14.80
2017-10-15T00:35:18.147Z,14.80
2017-10-15T00:37:45.755Z,14.80
2017-10-15T00:40:13.301Z,14.70
2017-10-15T00:42:41.608Z,14.70
2017-10-15T00:45:09.139Z,14.60
2017-10-15T00:47:37.786Z,14.60
2017-10-15T00:50:05.294Z,14.60
2017-10-15T00:52:32.818Z,14.60
2017-10-15T00:55:00.362Z,14.60
2017-10-15T00:57:27.912Z,14.60
2017-10-15T00:59:55.487Z,14.60
2017-10-15T01:02:22.993Z,14.60
2017-10-15T01:04:50.516Z,14.60
2017-10-15T01:07:18.055Z,14.60
2017-10-15T01:09:46.101Z,14.50
2017-10-15T01:12:13.687Z,14.50
2017-10-15T01:14:41.246Z,14.50
2017-10-15T01:17:09.451Z,14.50
2017-10-15T01:19:37.029Z,14.50
2017-10-15T01:22:05.343Z,14.40
2017-10-15T01:24:32.920Z,14.40
2017-10-15T01:27:00.440Z,14.40
2017-10-15T01:29:27.945Z,14.40
2017-10-15T01:31:55.489Z,14.40
2017-10-15T01:34:23.007Z,14.40
2017-10-15T01:36:51.339Z,14.40
2017-10-15T01:39:18.849Z,14.40
2017-10-15T01:41:47.124Z,14.30
2017-10-15T01:44:15.458Z,14.30
2017-10-15T01:46:42.996Z,14.30
2017-10-15T01:49:10.550Z,14.30
2017-10-15T01:51:38.065Z,14.30
2017-10-15T01:54:05.606Z,14.30
2017-10-15T01:56:33.143Z,14.30
2017-10-15T01:59:00.687Z,14.30
2017-10-15T02:01:28.247Z,14.30
2017-10-15T02:03:55.772Z,14.30
2017-10-15T02:06:23.276Z,14.30
2017-10-15T02:08:50.814Z,14.20
2017-10-15T02:11:19.095Z,14.20
2017-10-15T02:13:47.692Z,14.20
2017-10-15T02:16:15.207Z,14.20
2017-10-15T02:18:42.709Z,14.20
2017-10-15T02:21:10.264Z,14.20
2017-10-15T02:23:38.642Z,14.20
2017-10-15T02:26:06.203Z,14.10
2017-10-15T02:28:33.748Z,14.10
2017-10-15T02:31:02.043Z,14.10
2017-10-15T02:33:29.601Z,14.10
2017-10-15T02:35:57.903Z,14.10
2017-10-15T02:38:25.763Z,14.10
2017-10-15T02:40:53.271Z,14.10
2017-10-15T02:43:20.792Z,14.10
2017-10-15T02:45:48.339Z,14.10
2017-10-15T02:48:15.856Z,14.00
2017-10-15T02:50:43.411Z,14.00
2017-10-15T02:53:11.031Z,14.00
2017-10-15T02:55:38.564Z,14.00
2017-10-15T02:58:06.868Z,14.00
2017-10-15T03:00:34.385Z,14.00
2017-10-15T03:03:03.102Z,14.00
2017-10-15T03:05:30.625Z,14.00
2017-10-15T03:07:58.153Z,14.00
2017-10-15T03:10:25.690Z,14.00
2017-10-15T03:12:53.255Z,14.00
2017-10-15T03:15:21.085Z,14.00
2017-10-15T03:17:48.627Z,14.00
2017-10-15T03:20:16.141Z,14.00
2017-10-15T03:22:43.686Z,14.00
2017-10-15T03:25:11.199Z,14.00
2017-10-15T03:27:38.740Z,13.90
2017-10-15T03:30:06.249Z,13.90
2017-10-15T03:32:34.530Z,13.90
2017-10-15T03:35:02.834Z,13.90
2017-10-15T03:37:30.359Z,13.90
2017-10-15T03:39:58.677Z,13.80
2017-10-15T03:42:26.185Z,13.80
2017-10-15T03:44:54.474Z,13.80
2017-10-15T03:47:22.795Z,13.80
2017-10-15T03:49:50.320Z,13.80
2017-10-15T03:52:18.641Z,13.80
2017-10-15T03:54:46.162Z,13.80
2017-10-15T03:57:14.438Z,13.70
2017-10-15T03:59:42.753Z,13.70
2017-10-15T04:02:10.315Z,13.70
2017-10-15T04:04:37.880Z,13.70
2017-10-15T04:07:05.397Z,13.70
2017-10-15T04:09:33.669Z,13.70
2017-10-15T04:12:01.965Z,13.70
2017-10-15T04:14:29.474Z,13.60
2017-10-15T04:16:57.038Z,13.60
2017-10-15T04:19:24.560Z,13.60
2017-10-15T04:21:52.074Z,13.60
2017-10-15T04:24:19.619Z,13.60
2017-10-15T04:26:47.134Z,13.50
2017-10-15T04:29:14.683Z,13.50
2017-10-15T04:31:42.192Z,13.50
2017-10-15T04:34:09.705Z,13.50
2017-10-15T04:36:37.281Z,13.50
2017-10-15T04:39:04.805Z,13.50
2017-10-15T04:41:33.395Z,13.40
2017-10-15T04:44:01.674Z,13.40
2017-10-15T04:46:29.958Z,13.40
2017-10-15T04:49:00.582Z,13.40
2017-10-15T04:51:28.133Z,13.40
2017-10-15T04:53:56.476Z,13.40
2017-10-15T04:56:23.979Z,13.40
2017-10-15T04:58:52.255Z,13.40
2017-10-15T05:01:20.562Z,13.40
2017-10-15T05:03:48.568Z,13.30
2017-10-15T05:06:16.351Z,13.40
2017-10-15T05:08:43.853Z,13.30
2017-10-15T05:11:11.365Z,13.30
2017-10-15T05:13:38.894Z,13.30
2017-10-15T05:16:06.405Z,13.30
2017-10-15T05:18:35.015Z,13.30
2017-10-15T05:21:02.523Z,13.20
2017-10-15T05:23:30.037Z,13.30
2017-10-15T05:25:57.572Z,13.30
2017-10-15T05:28:25.840Z,13.20
2017-10-15T05:30:54.454Z,13.20
2017-10-15T05:33:21.988Z,13.20
2017-10-15T05:35:50.301Z,13.20
2017-10-15T05:38:17.837Z,13.20
2017-10-15T05:40:46.111Z,13.20
2017-10-15T05:43:14.417Z,13.10
2017-10-15T05:45:41.927Z,13.10
2017-10-15T05:48:09.432Z,13.20
2017-10-15T05:50:36.968Z,13.20
2017-10-15T05:53:04.485Z,13.10
2017-10-15T05:55:32.294Z,13.10
2017-10-15T05:58:00.693Z,13.10
2017-10-15T06:00:28.233Z,13.10
2017-10-15T06:02:56.540Z,13.20
2017-10-15T06:05:24.057Z,13.20
2017-10-15T06:07:51.974Z,13.20
2017-10-15T06:10:20.244Z,13.20
2017-10-15T06:12:47.757Z,13.20
2017-10-15T06:15:15.315Z,13.20
2017-10-15T06:17:42.842Z,13.20
2017-10-15T06:20:10.570Z,13.30
2017-10-15T06:22:38.843Z,13.30
2017-10-15T06:25:07.113Z,13.40
2017-10-15T06:27:35.418Z,13.40
2017-10-15T06:30:02.946Z,13.40
2017-10-15T06:32:31.278Z,13.50
2017-10-15T06:34:58.829Z,13.50
2017-10-15T06:37:26.366Z,13.50
2017-10-15T06:39:54.675Z,13.60
2017-10-15T06:42:22.954Z,13.60
2017-10-15T06:44:50.777Z,13.60
2017-10-15T06:47:19.055Z,13.70
2017-10-15T06:49:47.344Z,13.70
2017-10-15T06:52:14.925Z,13.70
2017-10-15T06:54:42.430Z,13.80
2017-10-15T06:57:10.246Z,13.90
2017-10-15T06:59:37.759Z,13.90
2017-10-15T07:02:05.329Z,14.00
2017-10-15T07:04:33.644Z,14.10
2017-10-15T07:07:01.200Z,14.10
2017-10-15T07:09:29.139Z,14.20
2017-10-15T07:11:56.670Z,14.30
2017-10-15T07:14:24.189Z,14.40
2017-10-15T07:16:51.725Z,14.40
2017-10-15T07:19:20.007Z,14.60
2017-10-15T07:21:48.773Z,14.70
2017-10-15T07:24:16.298Z,14.70
2017-10-15T07:26:43.916Z,14.80
2017-10-15T07:29:12.316Z,14.90
2017-10-15T07:31:40.003Z,14.90
2017-10-15T07:34:08.459Z,15.10
2017-10-15T07:36:36.058Z,15.10
2017-10-15T07:39:03.626Z,15.30
2017-10-15T07:41:34.348Z,15.30
2017-10-15T07:44:02.876Z,15.50
2017-10-15T07:46:31.539Z,15.80
2017-10-15T07:48:59.323Z,15.80
2017-10-15T07:51:26.937Z,16.00
2017-10-15T07:53:56.006Z,16.10
2017-10-15T07:56:24.573Z,16.20
2017-10-15T07:58:52.381Z,16.30
2017-10-15T08:01:23.837Z,16.30
2017-10-15T08:03:51.486Z,16.40
2017-10-15T08:06:23.371Z,16.50
2017-10-15T08:08:50.970Z,16.50
2017-10-15T08:11:19.568Z,16.60
2017-10-15T08:13:47.888Z,16.70
2017-10-15T08:16:15.600Z,16.70
2017-10-15T08:18:43.163Z,16.80
2017-10-15T08:21:11.636Z,17.00
2017-10-15T08:23:39.529Z,17.00
2017-10-15T08:26:07.310Z,17.10
2017-10-15T08:28:34.958Z,17.20
2017-10-15T08:31:02.734Z,17.30
2017-10-15T08:33:30.357Z,17.40
2017-10-15T08:35:58.753Z,17.60
2017-10-15T08:38:27.140Z,17.80
2017-10-15T08:40:54.770Z,17.70
2017-10-15T08:43:22.360Z,17.80
2017-10-15T08:45:50.727Z,18.10
2017-10-15T08:48:18.748Z,18.10
2017-10-15T08:50:47.352Z,18.30
2017-10-15T08:53:14.933Z,18.30
2017-10-15T08:55:42.504Z,18.40
2017-10-15T08:58:10.946Z,18.70
2017-10-15T09:00:38.887Z,18.60
2017-10-15T09:03:06.441Z,18.80
2017-10-15T09:05:33.982Z,18.90
2017-10-15T09:08:02.430Z,19.10
2017-10-15T09:10:30.486Z,19.10
2017-10-15T09:12:58.496Z,19.30
2017-10-15T09:15:26.690Z,19.40
2017-10-15T09:17:55.448Z,19.50
2017-10-15T09:20:24.203Z,19.60
2017-10-15T09:22:53.207Z,19.60
2017-10-15T09:25:22.127Z,19.80
2017-10-15T09:27:50.820Z,19.90
2017-10-15T09:30:18.611Z,19.90
2017-10-15T09:32:46.924Z,20.20
2017-10-15T09:35:15.250Z,20.20
2017-10-15T09:37:43.036Z,20.20
2017-10-15T09:40:11.477Z,20.40
2017-10-15T09:42:39.113Z,20.40
2017-10-15T09:45:07.649Z,20.50
2017-10-15T09:47:35.692Z,20.60
2017-10-15T09:50:04.252Z,20.80
2017-10-15T09:52:31.790Z,20.70
2017-10-15T09:54:59.722Z,20.90
2017-10-15T09:57:27.263Z,21.00
2017-10-15T09:59:54.766Z,21.00
2017-10-15T10:02:23.090Z,21.20
2017-10-15T10:04:50.623Z,21.20
2017-10-15T10:07:18.188Z,21.30
2017-10-15T10:09:45.740Z,21.40
2017-10-15T10:12:13.267Z,21.50
2017-10-15T10:14:40.837Z,21.50
2017-10-15T10:17:09.126Z,21.80
2017-10-15T10:19:36.658Z,21.70
2017-10-15T10:22:04.204Z,21.90
2017-10-15T10:24:32.435Z,21.90
2017-10-15T10:27:00.221Z,22.00
2017-10-15T10:29:28.600Z,22.10
2017-10-15T10:31:58.810Z,22.10
2017-10-15T10:34:26.540Z,22.20
2017-10-15T10:36:54.137Z,22.20
2017-10-15T10:39:21.796Z,22.30
2017-10-15T10:41:49.462Z,22.30
2017-10-15T10:44:17.125Z,22.70
2017-10-15T10:46:45.486Z,22.50
2017-10-15T10:49:13.124Z,22.50
2017-10-15T10:51:42.311Z,22.60
2017-10-15T10:54:10.053Z,22.60
2017-10-15T10:56:41.391Z,22.70
2017-10-15T10:59:09.788Z,22.70
2017-10-15T11:01:38.591Z,22.80
2017-10-15T11:04:06.558Z,22.90
2017-10-15T11:06:34.163Z,22.90
2017-10-15T11:09:02.868Z,23.00
2017-10-15T11:11:31.400Z,23.00
2017-10-15T11:13:59.041Z,23.10
2017-10-15T11:16:26.584Z,23.20
2017-10-15T11:18:54.093Z,23.20
2017-10-15T11:21:21.620Z,23.30
2017-10-15T11:23:50.049Z,23.30
2017-10-15T11:26:18.372Z,24.70
2017-10-15T11:28:45.893Z,24.60
2017-10-15T11:31:14.195Z,27.20
2017-10-15T11:33:41.789Z,27.10
2017-10-15T11:36:09.338Z,28.30
2017-10-15T11:38:36.887Z,29.40
2017-10-15T11:41:04.424Z,30.30
2017-10-15T11:43:31.943Z,31.40
2017-10-15T11:45:59.505Z,32.30
2017-10-15T11:48:27.361Z,33.30
2017-10-15T11:50:54.904Z,34.30
2017-10-15T11:53:23.200Z,36.30
2017-10-15T11:55:50.745Z,36.20
2017-10-15T11:58:18.317Z,37.20
2017-10-15T12:00:45.843Z,38.10
2017-10-15T12:03:13.406Z,39.10
2017-10-15T12:05:40.921Z,39.90
2017-10-15T12:08:09.272Z,40.80
2017-10-15T12:10:38.043Z,40.70
2017-10-15T12:13:06.353Z,40.50
2017-10-15T12:15:33.901Z,40.50
2017-10-15T12:18:02.078Z,40.70
2017-10-15T12:20:29.658Z,40.70
2017-10-15T12:22:57.308Z,41.00
2017-10-15T12:25:24.835Z,41.40
2017-10-15T12:27:52.392Z,41.70
2017-10-15T12:30:19.925Z,42.00
2017-10-15T12:32:48.227Z,42.40
2017-10-15T12:35:15.745Z,42.40
2017-10-15T12:37:43.293Z,42.60
2017-10-15T12:40:10.803Z,42.60
2017-10-15T12:42:38.341Z,42.80
2017-10-15T12:45:06.644Z,43.20
2017-10-15T12:47:34.853Z,43.10
2017-10-15T12:50:02.446Z,43.30
2017-10-15T12:52:30.036Z,43.20
2017-10-15T12:54:57.542Z,43.20
2017-10-15T12:57:25.094Z,43.00
2017-10-15T12:59:52.649Z,42.90
2017-10-15T13:02:20.181Z,42.70
2017-10-15T13:04:47.725Z,42.50
2017-10-15T13:07:16.030Z,42.50
2017-10-15T13:09:43.541Z,42.50
2017-10-15T13:12:11.086Z,42.80
2017-10-15T13:14:38.618Z,43.00
2017-10-15T13:17:06.161Z,43.00
2017-10-15T13:19:33.702Z,42.00
2017-10-15T13:22:02.391Z,38.80
2017-10-15T13:24:30.674Z,37.20
2017-10-15T13:26:58.977Z,35.90
2017-10-15T13:29:26.530Z,35.80
2017-10-15T13:31:54.859Z,34.70
2017-10-15T13:34:22.390Z,33.60
2017-10-15T13:36:49.916Z,33.10
2017-10-15T13:39:18.710Z,33.50
2017-10-15T13:41:46.261Z,33.50
2017-10-15T13:44:14.638Z,32.60
2017-10-15T13:46:42.187Z,32.50
2017-10-15T13:49:10.581Z,31.20
2017-10-15T13:51:38.124Z,31.10
2017-10-15T13:54:05.731Z,30.60
2017-10-15T13:56:33.290Z,30.10
2017-10-15T13:59:01.681Z,29.20
2017-10-15T14:01:29.226Z,29.10
2017-10-15T14:03:56.876Z,28.70
2017-10-15T14:06:24.468Z,28.40
2017-10-15T14:08:52.230Z,28.20
2017-10-15T14:11:20.410Z,27.90
2017-10-15T14:13:47.998Z,27.70
2017-10-15T14:16:16.259Z,27.50
2017-10-15T14:18:43.879Z,27.20
2017-10-15T14:21:11.400Z,27.00
2017-10-15T14:23:38.959Z,26.90
2017-10-15T14:26:07.421Z,26.60
2017-10-15T14:28:34.994Z,26.60
2017-10-15T14:31:02.883Z,26.50
2017-10-15T14:33:30.598Z,26.30
2017-10-15T14:35:58.110Z,26.20
2017-10-15T14:38:25.632Z,26.10
2017-10-15T14:40:53.144Z,26.00
2017-10-15T14:43:20.861Z,25.90
2017-10-15T14:45:50.200Z,25.80
2017-10-15T14:48:17.931Z,25.70
2017-10-15T14:50:47.146Z,25.50
2017-10-15T14:53:14.755Z,25.50
2017-10-15T14:55:42.329Z,25.40
2017-10-15T14:58:09.834Z,25.30
2017-10-15T15:00:37.456Z,25.20
2017-10-15T15:03:05.065Z,25.10
2017-10-15T15:05:33.050Z,25.00
2017-10-15T15:08:00.608Z,25.00
2017-10-15T15:10:29.701Z,24.80
2017-10-15T15:12:58.074Z,24.70
2017-10-15T15:15:26.373Z,24.70
2017-10-15T15:17:54.746Z,24.60
2017-10-15T15:20:22.284Z,24.60
2017-10-15T15:22:50.123Z,24.50
2017-10-15T15:25:17.765Z,24.50
2017-10-15T15:27:45.327Z,24.40
2017-10-15T15:30:12.999Z,24.30
2017-10-15T15:32:40.680Z,24.20
2017-10-15T15:35:09.106Z,24.10
2017-10-15T15:37:37.504Z,23.90
2017-10-15T15:40:05.258Z,23.90
2017-10-15T15:42:32.952Z,23.90
2017-10-15T15:45:00.642Z,23.80
2017-10-15T15:47:29.299Z,23.60
2017-10-15T15:49:57.200Z,23.60
2017-10-15T15:52:25.007Z,23.50
2017-10-15T15:54:52.586Z,23.50
2017-10-15T15:57:20.162Z,23.30
2017-10-15T15:59:47.948Z,23.20
2017-10-15T16:02:16.448Z,23.10
2017-10-15T16:04:44.075Z,23.10
2017-10-15T16:07:11.682Z,22.90
2017-10-15T16:09:40.123Z,22.80
2017-10-15T16:12:07.801Z,22.70
2017-10-15T16:14:35.481Z,22.70
2017-10-15T16:17:03.092Z,22.60
2017-10-15T16:19:31.523Z,22.40
2017-10-15T16:21:59.077Z,22.40
2017-10-15T16:24:27.113Z,22.30
2017-10-15T16:27:00.984Z,22.20
2017-10-15T16:29:52.437Z,22.20
2017-10-15T16:32:26.012Z,22.00
2017-10-15T16:34:55.341Z,21.80
2017-10-15T16:37:22.844Z,21.80
2017-10-15T16:39:50.406Z,21.80
2017-10-15T16:42:17.938Z,21.70
2017-10-15T16:44:45.483Z,21.60
2017-10-15T16:47:13.042Z,21.50
2017-10-15T16:49:40.559Z,21.40
2017-10-15T16:52:08.860Z,21.30
2017-10-15T16:54:40.188Z,21.20
2017-10-15T16:57:08.497Z,21.10
2017-10-15T16:59:36.016Z,21.10
2017-10-15T17:02:03.591Z,21.00
2017-10-15T17:04:31.883Z,20.90
2017-10-15T17:07:00.186Z,20.80
2017-10-15T17:09:27.738Z,20.80
2017-10-15T17:11:55.267Z,20.70
2017-10-15T17:14:23.579Z,20.60
2017-10-15T17:16:51.248Z,20.50
2017-10-15T17:19:18.876Z,20.50
2017-10-15T17:21:47.203Z,20.40
2017-10-15T17:24:14.734Z,20.40
2017-10-15T17:26:42.309Z,20.30
2017-10-15T17:29:09.869Z,20.30
2017-10-15T17:31:37.432Z,20.20
2017-10-15T17:34:04.964Z,20.20
2017-10-15T17:36:33.671Z,20.10
2017-10-15T17:39:01.263Z,20.10
2017-10-15T17:41:29.109Z,20.00
2017-10-15T17:43:56.698Z,20.00
2017-10-15T17:46:24.331Z,19.90
2017-10-15T17:48:51.907Z,19.90
2017-10-15T17:51:19.452Z,19.80
2017-10-15T17:53:47.087Z,19.70
2017-10-15T17:56:14.619Z,19.70
2017-10-15T17:58:42.196Z,19.60
2017-10-15T18:01:10.621Z,19.60
2017-10-15T18:03:38.211Z,19.50
2017-10-15T18:06:05.918Z,19.50
2017-10-15T18:08:34.447Z,19.40
2017-10-15T18:11:02.037Z,19.40
2017-10-15T18:13:30.833Z,19.30
2017-10-15T18:15:59.987Z,19.30
2017-10-15T18:18:27.845Z,19.20
2017-10-15T18:20:55.645Z,19.10
2017-10-15T18:23:23.340Z,19.10
2017-10-15T18:25:51.111Z,19.10
2017-10-15T18:28:19.628Z,19.00
2017-10-15T18:30:47.671Z,18.90
2017-10-15T18:33:15.875Z,18.90
2017-10-15T18:35:43.505Z,18.80
2017-10-15T18:38:11.223Z,18.80
2017-10-15T18:40:38.962Z,18.70
2017-10-15T18:43:06.614Z,18.60
2017-10-15T18:45:34.196Z,18.60
2017-10-15T18:48:01.872Z,18.50
2017-10-15T18:50:29.684Z,18.50
2017-10-15T18:52:57.532Z,18.40
2017-10-15T18:55:25.598Z,18.30
2017-10-15T18:57:54.080Z,18.20
2017-10-15T19:00:22.547Z,18.20
2017-10-15T19:02:50.949Z,18.10
2017-10-15T19:05:18.577Z,18.10
2017-10-15T19:07:46.200Z,18.00
2017-10-15T19:10:14.560Z,17.80
2017-10-15T19:12:42.980Z,17.80
2017-10-15T19:15:10.551Z,17.70
2017-10-15T19:17:38.276Z,17.70
2017-10-15T19:20:06.701Z,17.50
2017-10-15T19:22:34.553Z,17.50
2017-10-15T19:25:05.094Z,17.40
2017-10-15T19:27:32.775Z,17.30
2017-10-15T19:30:00.459Z,17.30
2017-10-15T19:32:28.311Z,17.30
2017-10-15T19:34:55.974Z,17.20
2017-10-15T19:37:23.916Z,17.20
2017-10-15T19:39:52.028Z,17.10
2017-10-15T19:42:20.475Z,17.00
2017-10-15T19:44:49.108Z,16.90
2017-10-15T19:47:17.579Z,16.90
2017-10-15T19:49:45.167Z,16.90
2017-10-15T19:52:12.770Z,16.90
2017-10-15T19:54:40.425Z,16.80
2017-10-15T19:57:08.101Z,16.80
2017-10-15T19:59:36.765Z,16.80
2017-10-15T20:02:04.990Z,16.70
2017-10-15T20:04:32.624Z,16.70
2017-10-15T20:07:00.230Z,16.60
2017-10-15T20:09:28.278Z,16.60
2017-10-15T20:11:55.872Z,16.60
2017-10-15T20:14:24.217Z,16.50
2017-10-15T20:16:52.039Z,16.50
2017-10-15T20:19:19.358Z,16.50
2017-10-15T20:21:47.060Z,16.50
2017-10-15T20:24:14.762Z,16.50
2017-10-15T20:26:43.122Z,16.40
2017-10-15T20:29:10.823Z,16.40
2017-10-15T20:31:39.209Z,16.30
2017-10-15T20:34:06.773Z,16.30
2017-10-15T20:36:34.404Z,16.30
2017-10-15T20:39:02.001Z,16.30
2017-10-15T20:41:29.592Z,16.20
2017-10-15T20:43:57.161Z,16.20
2017-10-15T20:46:24.753Z,16.20
2017-10-15T20:48:52.369Z,16.20
2017-10-15T20:51:19.948Z,16.20
2017-10-15T20:53:47.479Z,16.10
2017-10-15T20:56:15.870Z,16.00
2017-10-15T20:58:43.422Z,16.00
2017-10-15T21:01:11.775Z,16.00
2017-10-15T21:03:39.356Z,16.00
2017-10-15T21:06:06.977Z,16.00
2017-10-15T21:08:34.542Z,16.00
2017-10-15T21:11:02.171Z,15.90
2017-10-15T21:13:29.689Z,15.80
2017-10-15T21:15:57.234Z,15.80
2017-10-15T21:18:24.779Z,15.80
2017-10-15T21:20:54.260Z,15.70
2017-10-15T21:23:21.786Z,15.70
2017-10-15T21:25:50.140Z,15.60
2017-10-15T21:28:17.673Z,15.60
2017-10-15T21:30:45.263Z,15.60
2017-10-15T21:33:12.796Z,15.60
2017-10-15T21:35:40.362Z,15.50
2017-10-15T21:38:07.888Z,15.50
2017-10-15T21:40:35.798Z,15.40
2017-10-15T21:43:03.330Z,15.40
2017-10-15T21:45:30.921Z,15.30
2017-10-15T21:47:58.558Z,15.30
2017-10-15T21:50:26.062Z,15.30
2017-10-15T21:52:53.610Z,15.30
2017-10-15T21:55:21.131Z,15.20
2017-10-15T21:57:48.707Z,15.20
2017-10-15T22:00:16.231Z,15.20
2017-10-15T22:02:44.818Z,15.10
2017-10-15T22:05:12.349Z,15.10
2017-10-15T22:07:39.887Z,15.10
2017-10-15T22:10:07.731Z,15.10
2017-10-15T22:12:35.247Z,15.10
2017-10-15T22:15:03.545Z,15.00
2017-10-15T22:17:31.435Z,15.00
2017-10-15T22:19:58.956Z,15.00
2017-10-15T22:22:27.249Z,15.00
2017-10-15T22:24:55.846Z,14.90
2017-10-15T22:27:23.394Z,14.90
2017-10-15T22:29:50.920Z,14.90
2017-10-15T22:32:18.835Z,14.90
2017-10-15T22:34:46.352Z,14.90
2017-10-15T22:37:13.877Z,14.90
2017-10-15T22:39:41.713Z,14.80
2017-10-15T22:42:09.244Z,14.80
2017-10-15T22:44:36.770Z,14.80
2017-10-15T22:47:04.623Z,14.80
2017-10-15T22:49:32.135Z,14.70
2017-10-15T22:51:59.662Z,14.70
2017-10-15T22:54:27.508Z,14.70
2017-10-15T22:56:55.066Z,14.60
2017-10-15T22:59:22.576Z,14.60
2017-10-15T23:01:50.488Z,14.60
2017-10-15T23:04:17.999Z,14.60
2017-10-15T23:06:45.608Z,14.50
2017-10-15T23:09:13.432Z,14.50
2017-10-15T23:11:40.959Z,14.50
2017-10-15T23:14:08.476Z,14.40
2017-10-15T23:16:37.094Z,14.30
2017-10-15T23:19:04.626Z,14.30
2017-10-15T23:21:32.137Z,14.30
2017-10-15T23:23:59.979Z,14.30
2017-10-15T23:26:27.602Z,14.20
2017-10-15T23:28:55.993Z,14.10
2017-10-15T23:31:24.561Z,14.10
2017-10-15T23:33:52.061Z,14.10
2017-10-15T23:36:19.566Z,14.10
2017-10-15T23:38:47.539Z,14.10
2017-10-15T23:41:15.041Z,14.00
2017-10-15T23:43:42.551Z,14.00
2017-10-15T23:46:10.505Z,14.00
2017-10-15T23:48:38.019Z,13.90
2017-10-15T23:51:06.398Z,13.80
2017-10-15T23:53:34.235Z,13.80
2017-10-15T23:56:02.533Z,13.80
2017-10-15T23:58:30.846Z,13.70
